Time;durP1;ratioP1;P1;durP2;ratioP2;P2;SDS_P1;SDS_P2;PMS_P1;PMS_P2;Temp;Humidity;BMP_temperature;BMP_pressure;BME280_temperature;BME280_humidity;BME280_pressure;Samples;Min_cycle;Max_cycle;Signal;HPM_P1;HPM_P2
2021/11/24 08:18:49;;;;;;;468.55;261.15;;;;;;;;;;5109618;27;20356;-43
2021/11/24 08:21:15;;;;;;;305.35;182.20;;;;;;;;;;5095674;28;20391;-44
2021/11/24 08:23:43;;;;;;;413.50;230.52;;;;;;;;;;5086736;28;20457;-44
2021/11/24 08:26:10;;;;;;;349.70;200.80;;;;;;;;;;5094856;28;20455;-46
2021/11/24 08:28:36;;;;;;;205.50;139.52;;;;;;;;;;5098491;28;20580;-44
2021/11/24 08:31:05;;;;;;;145.13;114.90;;;;;;;;;;5091903;28;20478;-43
2021/11/24 08:33:31;;;;;;;7.97;3.90;;;;;;;;;;5088290;28;20387;-43
2021/11/24 08:35:57;;;;;;;6.75;4.30;;;;;;;;;;5089858;28;20373;-40
2021/11/24 08:38:25;;;;;;;8.27;4.83;;;;;;;;;;5084889;28;20458;-45
2021/11/24 08:40:51;;;;;;;12.40;11.05;;;;;;;;;;5085269;28;20484;-44
2021/11/24 08:43:17;;;;;;;6.07;4.15;;;;;;;;;;5101110;28;20851;-44
2021/11/24 08:45:51;;;;;;;7.60;4.07;;;;;;;;;;5083892;28;20410;-45
2021/11/24 08:48:21;;;;;;;6.53;3.85;;;;;;;;;;5093510;28;20478;-45
2021/11/24 08:50:50;;;;;;;5.28;3.88;;;;;;;;;;5096903;28;20373;-43
2021/11/24 08:53:20;;;;;;;6.32;3.83;;;;;;;;;;5095355;28;20871;-45
2021/11/24 08:55:47;;;;;;;6.53;3.70;;;;;;;;;;5093955;28;20367;-45
2021/11/24 08:58:13;;;;;;;6.47;4.20;;;;;;;;;;5090642;28;20367;-43
2021/11/24 09:00:40;;;;;;;6.72;4.07;;;;;;;;;;5089749;28;20822;-44
2021/11/24 09:03:06;;;;;;;5.82;3.70;;;;;;;;;;5091402;28;20418;-46
2021/11/24 09:05:33;;;;;;;6.30;3.78;;;;;;;;;;5098576;28;20389;-43
2021/11/24 09:08:02;;;;;;;6.90;4.18;;;;;;;;;;5096319;28;20560;-44
2021/11/24 09:10:32;;;;;;;6.75;3.97;;;;;;;;;;5098515;28;20380;-44
2021/11/24 09:13:02;;;;;;;6.72;3.92;;;;;;;;;;5095874;28;20380;-42
2021/11/24 09:15:31;;;;;;;7.47;4.40;;;;;;;;;;5097207;28;20402;-46
2021/11/24 09:17:57;;;;;;;8.05;4.57;;;;;;;;;;5085525;28;20405;-52
2021/11/24 09:20:26;;;;;;;6.95;4.25;;;;;;;;;;5064598;28;20375;-43
2021/11/24 09:22:57;;;;;;;6.18;3.78;;;;;;;;;;5101118;28;20441;-41
2021/11/24 09:25:36;;;;;;;6.00;4.10;;;;;;;;;;5102195;28;20826;-46
2021/11/24 09:28:15;;;;;;;5.27;3.90;;;;;;;;;;5096562;28;20490;-43
2021/11/24 09:30:46;;;;;;;7.57;4.10;;;;;;;;;;5084171;28;20445;-42
2021/11/24 09:33:13;;;;;;;7.28;3.97;;;;;;;;;;5053143;28;20510;-43
2021/11/24 09:35:39;;;;;;;6.80;3.90;;;;;;;;;;5057624;28;20383;-44
2021/11/24 09:38:11;;;;;;;5.40;3.60;;;;;;;;;;5083647;28;20872;-42
2021/11/24 09:40:41;;;;;;;7.60;3.72;;;;;;;;;;5059218;28;20478;-43
2021/11/24 09:43:10;;;;;;;5.75;3.83;;;;;;;;;;5070312;28;20371;-43
2021/11/24 09:45:38;;;;;;;5.43;3.60;;;;;;;;;;5050253;28;20469;-43
2021/11/24 09:48:05;;;;;;;5.68;3.58;;;;;;;;;;5070611;28;20420;-43
2021/11/24 09:50:35;;;;;;;6.60;4.00;;;;;;;;;;5051594;28;20426;-44
2021/11/24 09:53:02;;;;;;;4.90;3.40;;;;;;;;;;5087220;28;20521;-41
2021/11/24 09:55:33;;;;;;;6.45;4.20;;;;;;;;;;5068010;28;20413;-43
2021/11/24 09:58:00;;;;;;;5.32;3.83;;;;;;;;;;5079401;28;20415;-42
2021/11/24 10:00:26;;;;;;;5.68;3.97;;;;;;;;;;5067742;28;20383;-41
2021/11/24 10:02:55;;;;;;;5.50;3.65;;;;;;;;;;5067519;28;20883;-45
2021/11/24 10:05:22;;;;;;;5.28;3.40;;;;;;;;;;5063313;28;20465;-42
2021/11/24 10:07:51;;;;;;;5.15;3.35;;;;;;;;;;5071452;28;20422;-44
2021/11/24 10:10:18;;;;;;;4.60;3.20;;;;;;;;;;5081632;28;20839;-44
2021/11/24 10:12:50;;;;;;;7.03;4.20;;;;;;;;;;5065530;28;20380;-42
2021/11/24 10:15:34;;;;;;;4.95;3.38;;;;;;;;;;5068685;28;20389;-41
2021/11/24 10:18:14;;;;;;;5.32;3.40;;;;;;;;;;5063800;28;20873;-45
2021/11/24 10:20:46;;;;;;;4.95;3.50;;;;;;;;;;5081466;28;20379;-41
2021/11/24 10:23:22;;;;;;;5.65;3.42;;;;;;;;;;5056278;28;20432;-38
2021/11/24 10:25:49;;;;;;;5.03;3.40;;;;;;;;;;5070816;28;20389;-42
2021/11/24 10:28:25;;;;;;;6.07;3.70;;;;;;;;;;5090597;28;20791;-42
2021/11/24 10:30:56;;;;;;;5.60;3.70;;;;;;;;;;5093812;28;20376;-44
2021/11/24 10:33:27;;;;;;;5.20;3.42;;;;;;;;;;5101724;28;20521;-40
2021/11/24 10:36:12;;;;;;;5.72;3.60;;;;;;;;;;5101278;28;20372;-42
2021/11/24 10:38:48;;;;;;;6.75;4.00;;;;;;;;;;5101544;28;20366;-42
2021/11/24 10:41:26;;;;;;;7.55;4.25;;;;;;;;;;5091120;28;20426;-41
2021/11/24 10:43:56;;;;;;;6.80;4.40;;;;;;;;;;5088896;28;20374;-41
2021/11/24 10:46:31;;;;;;;7.68;4.32;;;;;;;;;;5087656;28;20389;-39
2021/11/24 10:49:10;;;;;;;7.22;4.07;;;;;;;;;;5089054;28;20897;-39
2021/11/24 10:51:39;;;;;;;5.22;3.60;;;;;;;;;;5086936;28;20473;-41
2021/11/24 10:54:06;;;;;;;5.80;3.80;;;;;;;;;;5104666;28;20474;-40
2021/11/24 10:56:32;;;;;;;5.75;3.50;;;;;;;;;;5088491;28;20382;-41
2021/11/24 10:59:17;;;;;;;5.32;3.60;;;;;;;;;;5089064;28;20367;-41
2021/11/24 11:01:44;;;;;;;6.38;4.00;;;;;;;;;;5099956;28;20389;-41
2021/11/24 11:04:12;;;;;;;6.32;3.88;;;;;;;;;;5090225;28;20439;-40
2021/11/24 11:06:40;;;;;;;5.67;4.00;;;;;;;;;;5089460;28;20937;-41
2021/11/24 11:09:06;;;;;;;5.70;3.85;;;;;;;;;;5072812;28;20362;-41
2021/11/24 11:11:36;;;;;;;6.63;3.90;;;;;;;;;;5089744;28;20528;-43
2021/11/24 11:14:15;;;;;;;7.88;4.35;;;;;;;;;;5087830;28;20405;-41
2021/11/24 11:16:49;;;;;;;7.95;4.22;;;;;;;;;;5071252;28;20538;-41
2021/11/24 11:19:33;;;;;;;7.50;4.13;;;;;;;;;;5076567;28;20372;-42
2021/11/24 11:22:02;;;;;;;6.82;4.05;;;;;;;;;;5098194;28;20378;-40
2021/11/24 11:24:28;;;;;;;6.13;4.00;;;;;;;;;;5087714;28;20377;-41
2021/11/24 11:26:56;;;;;;;6.63;4.10;;;;;;;;;;5088008;28;20515;-41
2021/11/24 11:29:22;;;;;;;5.93;3.40;;;;;;;;;;5087649;28;20402;-43
2021/11/24 11:31:53;;;;;;;4.85;3.17;;;;;;;;;;5100497;28;20386;-40
2021/11/24 11:34:23;;;;;;;4.85;3.45;;;;;;;;;;5070059;28;20489;-44
2021/11/24 11:36:52;;;;;;;6.20;3.90;;;;;;;;;;5069979;28;20506;-41
2021/11/24 11:39:21;;;;;;;4.43;3.10;;;;;;;;;;5078238;28;20386;-41
2021/11/24 11:41:49;;;;;;;7.13;3.83;;;;;;;;;;5100068;28;20393;-40
2021/11/24 11:44:18;;;;;;;7.55;3.95;;;;;;;;;;5101471;28;20435;-39
2021/11/24 11:46:50;;;;;;;6.13;3.47;;;;;;;;;;5088462;28;20427;-40
2021/11/24 11:49:20;;;;;;;5.65;3.28;;;;;;;;;;5089825;28;20393;-41
2021/11/24 11:51:48;;;;;;;6.03;3.33;;;;;;;;;;5076676;28;20382;-41
2021/11/24 11:54:30;;;;;;;5.40;3.67;;;;;;;;;;5093462;28;20408;-40
2021/11/24 11:57:03;;;;;;;4.63;3.50;;;;;;;;;;5079472;28;20392;-40
2021/11/24 11:59:35;;;;;;;4.40;3.23;;;;;;;;;;5095085;28;20474;-40
2021/11/24 12:02:03;;;;;;;5.57;3.90;;;;;;;;;;5087414;28;20981;-41
2021/11/24 12:04:40;;;;;;;6.68;3.85;;;;;;;;;;5089244;28;20729;-41
2021/11/24 12:07:10;;;;;;;6.32;3.83;;;;;;;;;;5092250;28;20429;-45
2021/11/24 12:09:40;;;;;;;6.95;4.40;;;;;;;;;;5086291;28;20398;-47
2021/11/24 12:12:07;;;;;;;7.03;3.90;;;;;;;;;;5098653;28;20549;-44
2021/11/24 12:14:51;;;;;;;8.88;4.45;;;;;;;;;;5088368;28;20457;-47
2021/11/24 12:17:36;;;;;;;7.53;4.20;;;;;;;;;;5078643;28;20459;-44
2021/11/24 12:20:12;;;;;;;7.05;4.40;;;;;;;;;;5078444;28;20439;-47
2021/11/24 12:22:55;;;;;;;7.88;3.90;;;;;;;;;;5049712;28;20814;-48
2021/11/24 12:25:23;;;;;;;10.77;4.20;;;;;;;;;;5067611;28;20372;-47
2021/11/24 12:28:01;;;;;;;7.50;4.35;;;;;;;;;;5067307;28;20968;-47
2021/11/24 12:33:04;;;;;;;6.03;4.10;;;;;;;;;;5070991;28;20394;-46
2021/11/24 12:35:31;;;;;;;7.55;4.30;;;;;;;;;;5084868;28;20404;-46
2021/11/24 12:38:00;;;;;;;6.63;4.07;;;;;;;;;;5069278;28;20364;-48
2021/11/24 12:40:31;;;;;;;6.78;3.92;;;;;;;;;;5070225;28;20437;-46
2021/11/24 12:42:59;;;;;;;7.28;4.10;;;;;;;;;;5089343;28;20477;-46
2021/11/24 12:45:31;;;;;;;7.47;4.10;;;;;;;;;;5089697;28;20950;-46
2021/11/24 12:48:01;;;;;;;6.13;3.78;;;;;;;;;;5066621;28;20405;-47
2021/11/24 12:50:28;;;;;;;5.95;3.78;;;;;;;;;;5087464;28;20381;-46
2021/11/24 12:53:12;;;;;;;7.32;4.15;;;;;;;;;;5087468;28;20389;-46
2021/11/24 12:55:41;;;;;;;5.82;4.00;;;;;;;;;;5086178;28;20381;-47
2021/11/24 12:58:26;;;;;;;5.45;3.83;;;;;;;;;;5087755;28;20428;-46
2021/11/24 13:00:55;;;;;;;6.28;4.07;;;;;;;;;;5087895;28;20374;-48
2021/11/24 13:03:28;;;;;;;7.22;4.20;;;;;;;;;;5087501;28;20421;-45
2021/11/24 13:05:58;;;;;;;6.10;4.30;;;;;;;;;;5080525;28;20401;-47
2021/11/24 13:08:24;;;;;;;8.85;4.72;;;;;;;;;;5053294;28;20864;-46
2021/11/24 13:11:15;;;;;;;6.70;3.90;;;;;;;;;;5100719;28;20857;-45
2021/11/24 13:13:41;;;;;;;6.95;4.55;;;;;;;;;;5088773;28;20394;-45
2021/11/24 13:16:19;;;;;;;6.00;3.90;;;;;;;;;;5091003;28;20374;-46
2021/11/24 13:18:55;;;;;;;6.93;4.32;;;;;;;;;;5089692;28;20414;-48
2021/11/24 13:21:24;;;;;;;8.02;4.35;;;;;;;;;;5090589;28;20363;-40
2021/11/24 13:24:05;;;;;;;6.88;4.68;;;;;;;;;;5082705;28;20953;-41
2021/11/24 13:26:32;;;;;;;7.35;4.47;;;;;;;;;;5090456;28;20374;-40
2021/11/24 13:28:58;;;;;;;10.52;4.70;;;;;;;;;;5090922;28;20484;-38
2021/11/24 13:31:30;;;;;;;6.90;4.43;;;;;;;;;;5090781;28;20887;-41
2021/11/24 13:34:08;;;;;;;7.50;4.25;;;;;;;;;;5094467;28;20388;-45
2021/11/24 13:36:46;;;;;;;9.13;4.45;;;;;;;;;;5088466;28;20377;-46
2021/11/24 13:39:17;;;;;;;9.40;4.70;;;;;;;;;;5088440;28;20902;-46
2021/11/24 13:41:44;;;;;;;8.67;5.00;;;;;;;;;;5089128;28;20435;-42
2021/11/24 13:44:10;;;;;;;5.68;3.83;;;;;;;;;;5089361;28;20443;-43
2021/11/24 13:46:40;;;;;;;5.80;3.90;;;;;;;;;;5089248;28;20378;-40
2021/11/24 13:49:08;;;;;;;6.72;4.13;;;;;;;;;;5072715;28;20426;-43
2021/11/24 13:51:34;;;;;;;7.72;4.05;;;;;;;;;;5088357;28;20390;-41
2021/11/24 13:54:07;;;;;;;6.22;4.20;;;;;;;;;;5089011;28;20839;-43
2021/11/24 13:56:42;;;;;;;7.33;4.27;;;;;;;;;;5088848;28;20401;-41
2021/11/24 13:59:12;;;;;;;8.85;4.25;;;;;;;;;;5089307;28;20390;-41
2021/11/24 14:01:46;;;;;;;8.05;4.05;;;;;;;;;;5089650;28;20390;-42
2021/11/24 14:04:17;;;;;;;7.60;4.43;;;;;;;;;;5089662;28;20382;-41
2021/11/24 14:06:48;;;;;;;6.73;4.13;;;;;;;;;;5089962;28;20422;-41
2021/11/24 14:09:15;;;;;;;6.40;4.27;;;;;;;;;;5090223;28;20375;-42
2021/11/24 14:11:58;;;;;;;6.68;4.20;;;;;;;;;;5089088;28;20390;-44
2021/11/24 14:14:27;;;;;;;6.13;3.97;;;;;;;;;;5090172;28;20371;-43
2021/11/24 14:16:54;;;;;;;8.10;4.47;;;;;;;;;;5062963;28;20419;-41
2021/11/24 14:19:24;;;;;;;5.40;3.47;;;;;;;;;;5037680;28;20482;-40
2021/11/24 14:21:53;;;;;;;6.73;3.93;;;;;;;;;;5034301;28;20783;-44
2021/11/24 14:24:22;;;;;;;5.07;3.33;;;;;;;;;;5024788;28;20392;-43
2021/11/24 14:26:51;;;;;;;6.60;3.40;;;;;;;;;;5040946;28;20399;-44
2021/11/24 14:29:20;;;;;;;5.90;3.75;;;;;;;;;;5048542;28;20718;-46
2021/11/24 14:31:53;;;;;;;6.10;4.07;;;;;;;;;;5048432;28;20389;-41
2021/11/24 14:34:22;;;;;;;7.65;4.20;;;;;;;;;;5036658;28;20481;-42
2021/11/24 14:36:51;;;;;;;6.72;4.03;;;;;;;;;;5049256;28;20389;-41
2021/11/24 14:39:17;;;;;;;7.43;4.50;;;;;;;;;;5050009;28;20753;-41
2021/11/24 14:41:45;;;;;;;8.90;5.30;;;;;;;;;;5048739;28;20370;-41
2021/11/24 14:44:12;;;;;;;8.57;5.50;;;;;;;;;;5050333;28;20378;-40
2021/11/24 14:46:39;;;;;;;12.85;6.78;;;;;;;;;;5056113;28;20862;-40
2021/11/24 14:49:05;;;;;;;9.95;7.15;;;;;;;;;;5062550;28;20714;-42
2021/11/24 14:51:32;;;;;;;11.30;9.00;;;;;;;;;;5050086;28;20460;-42
2021/11/24 14:53:59;;;;;;;10.07;8.68;;;;;;;;;;5039788;28;20405;-41
2021/11/24 14:56:30;;;;;;;10.15;6.70;;;;;;;;;;5060160;28;20463;-43
2021/11/24 14:58:56;;;;;;;9.48;6.60;;;;;;;;;;5057778;28;20392;-41
2021/11/24 15:01:22;;;;;;;10.82;7.55;;;;;;;;;;5048059;28;20377;-41
2021/11/24 15:03:52;;;;;;;11.20;7.03;;;;;;;;;;5047879;28;20377;-41
2021/11/24 15:06:19;;;;;;;10.30;7.15;;;;;;;;;;5047802;28;20512;-45
2021/11/24 15:08:47;;;;;;;11.40;6.40;;;;;;;;;;5047834;28;20777;-43
2021/11/24 15:11:14;;;;;;;11.52;6.78;;;;;;;;;;5048260;28;21131;-41
2021/11/24 15:13:40;;;;;;;10.90;6.97;;;;;;;;;;5047741;28;20374;-41
2021/11/24 15:16:11;;;;;;;9.85;6.55;;;;;;;;;;5047484;28;20373;-42
2021/11/24 15:18:37;;;;;;;123.97;104.80;;;;;;;;;;5066636;28;20427;-43
2021/11/24 15:21:04;;;;;;;98.77;88.23;;;;;;;;;;5076973;28;20472;-41
2021/11/24 15:23:30;;;;;;;190.60;134.77;;;;;;;;;;5067247;28;20404;-41
2021/11/24 15:25:57;;;;;;;154.32;119.68;;;;;;;;;;5065182;28;20372;-41
2021/11/24 15:28:23;;;;;;;156.37;120.67;;;;;;;;;;5064015;28;20417;-42
2021/11/24 15:30:52;;;;;;;65.28;59.50;;;;;;;;;;5067469;28;20375;-41
2021/11/24 15:33:18;;;;;;;16.50;15.02;;;;;;;;;;5067853;28;20467;-41
2021/11/24 15:35:48;;;;;;;19.02;17.20;;;;;;;;;;5067801;28;20484;-41
2021/11/24 15:38:16;;;;;;;37.28;34.35;;;;;;;;;;5064005;28;20372;-42
2021/11/24 15:40:44;;;;;;;47.60;43.63;;;;;;;;;;5067604;28;20383;-42
2021/11/24 15:43:14;;;;;;;18.80;17.20;;;;;;;;;;5067476;28;20376;-40
2021/11/24 15:45:44;;;;;;;45.42;42.00;;;;;;;;;;5067939;28;20802;-40
2021/11/24 15:48:10;;;;;;;17.48;15.77;;;;;;;;;;5067485;28;20771;-41
2021/11/24 15:50:37;;;;;;;10.18;7.53;;;;;;;;;;5082211;28;20897;-41
2021/11/24 15:53:03;;;;;;;12.57;7.75;;;;;;;;;;5067018;28;20374;-42
2021/11/24 15:55:29;;;;;;;12.30;7.45;;;;;;;;;;5068806;28;20378;-42
2021/11/24 15:57:55;;;;;;;8.15;5.93;;;;;;;;;;5066693;28;20375;-42
2021/11/24 16:00:22;;;;;;;9.50;6.27;;;;;;;;;;5067200;28;20526;-41
2021/11/24 16:02:51;;;;;;;8.40;6.05;;;;;;;;;;5080537;28;20393;-42
2021/11/24 16:05:17;;;;;;;9.85;6.57;;;;;;;;;;5080922;28;20969;-42
2021/11/24 16:07:46;;;;;;;8.90;5.97;;;;;;;;;;5067447;28;20531;-41
2021/11/24 16:10:12;;;;;;;11.15;6.80;;;;;;;;;;5066919;28;20871;-41
2021/11/24 16:12:41;;;;;;;9.63;6.22;;;;;;;;;;5049384;28;20371;-41
2021/11/24 16:15:16;;;;;;;9.98;6.40;;;;;;;;;;5080857;28;20447;-40
2021/11/24 16:17:47;;;;;;;12.60;6.70;;;;;;;;;;5067956;28;20713;-44
2021/11/24 16:20:18;;;;;;;12.63;6.60;;;;;;;;;;5072148;28;20406;-40
2021/11/24 16:22:44;;;;;;;13.98;6.95;;;;;;;;;;5068973;28;20370;-37
2021/11/24 16:25:12;;;;;;;10.55;6.25;;;;;;;;;;5048985;28;20507;-37
2021/11/24 16:27:38;;;;;;;11.13;6.03;;;;;;;;;;5067001;28;20423;-36
2021/11/24 16:30:06;;;;;;;12.30;6.38;;;;;;;;;;5049078;28;20372;-37
2021/11/24 16:32:32;;;;;;;11.88;6.53;;;;;;;;;;5067250;28;20380;-37
2021/11/24 16:34:59;;;;;;;12.98;7.00;;;;;;;;;;5066832;28;20407;-39
2021/11/24 16:37:25;;;;;;;12.13;6.55;;;;;;;;;;5067183;28;20557;-39
2021/11/24 16:39:54;;;;;;;11.77;6.70;;;;;;;;;;5075539;28;20441;-39
2021/11/24 16:42:20;;;;;;;9.07;5.68;;;;;;;;;;5071287;28;20388;-38
2021/11/24 16:44:46;;;;;;;11.45;6.32;;;;;;;;;;5070995;28;20522;-40
2021/11/24 16:47:12;;;;;;;13.48;7.38;;;;;;;;;;5062487;28;20459;-38
2021/11/24 16:49:41;;;;;;;12.02;6.68;;;;;;;;;;5061953;28;20400;-39
2021/11/24 16:52:08;;;;;;;12.77;6.97;;;;;;;;;;5066813;28;20386;-36
2021/11/24 16:54:35;;;;;;;10.45;6.28;;;;;;;;;;5069142;28;20380;-38
2021/11/24 16:57:01;;;;;;;8.98;5.75;;;;;;;;;;5071461;28;20685;-38
2021/11/24 16:59:27;;;;;;;10.35;6.13;;;;;;;;;;5069792;28;20893;-39
2021/11/24 17:01:56;;;;;;;9.32;5.70;;;;;;;;;;5070719;28;20751;-40
2021/11/24 17:04:22;;;;;;;10.48;5.68;;;;;;;;;;5065814;28;20501;-40
2021/11/24 17:06:48;;;;;;;12.95;7.05;;;;;;;;;;5065486;28;20419;-41
2021/11/24 17:09:14;;;;;;;13.32;7.07;;;;;;;;;;5042876;28;20903;-40
2021/11/24 17:11:41;;;;;;;11.00;6.33;;;;;;;;;;5049724;28;20380;-40
2021/11/24 17:14:07;;;;;;;12.82;6.90;;;;;;;;;;5061860;28;20388;-41
2021/11/24 17:16:33;;;;;;;7.95;5.60;;;;;;;;;;5066048;28;20388;-40
2021/11/24 17:18:59;;;;;;;11.20;6.05;;;;;;;;;;5067783;28;20409;-40
2021/11/24 17:21:26;;;;;;;8.02;5.57;;;;;;;;;;5070747;28;20505;-38
2021/11/24 17:23:52;;;;;;;8.27;5.00;;;;;;;;;;5050992;28;20480;-38
2021/11/24 17:26:19;;;;;;;8.75;5.35;;;;;;;;;;5073785;28;20476;-38
2021/11/24 17:28:45;;;;;;;7.85;5.40;;;;;;;;;;5066313;28;20407;-40
2021/11/24 17:31:11;;;;;;;7.88;5.57;;;;;;;;;;5058835;28;20482;-40
2021/11/24 17:33:39;;;;;;;8.95;5.90;;;;;;;;;;5069215;28;20493;-40
2021/11/24 17:36:09;;;;;;;7.55;5.60;;;;;;;;;;5083988;28;20464;-40
2021/11/24 17:38:35;;;;;;;10.43;6.85;;;;;;;;;;5069503;28;20867;-42
2021/11/24 17:41:01;;;;;;;9.07;6.80;;;;;;;;;;5083293;28;20524;-39
2021/11/24 17:43:28;;;;;;;8.00;6.20;;;;;;;;;;5051346;28;20387;-40
2021/11/24 17:45:54;;;;;;;8.82;5.65;;;;;;;;;;5067572;28;20375;-40
2021/11/24 17:48:22;;;;;;;9.88;6.45;;;;;;;;;;5075863;28;21015;-40
2021/11/24 17:50:48;;;;;;;9.52;6.63;;;;;;;;;;5067930;28;20895;-39
2021/11/24 17:53:15;;;;;;;8.38;5.75;;;;;;;;;;5068765;28;20380;-41
2021/11/24 17:55:41;;;;;;;8.38;5.80;;;;;;;;;;5083795;28;20471;-40
2021/11/24 17:58:07;;;;;;;10.13;6.82;;;;;;;;;;5074248;28;20415;-40
2021/11/24 18:00:34;;;;;;;45.92;42.55;;;;;;;;;;5067944;28;20514;-39
2021/11/24 18:03:00;;;;;;;34.58;32.08;;;;;;;;;;5050557;28;20367;-39
2021/11/24 18:05:31;;;;;;;10.13;7.05;;;;;;;;;;5069380;28;20467;-40
2021/11/24 18:07:57;;;;;;;11.03;7.80;;;;;;;;;;5051028;28;20465;-40
2021/11/24 18:10:24;;;;;;;9.63;6.90;;;;;;;;;;5050743;28;20387;-39
2021/11/24 18:12:53;;;;;;;12.30;9.82;;;;;;;;;;5059382;28;20693;-44
2021/11/24 18:15:22;;;;;;;100.20;89.85;;;;;;;;;;5082378;28;20431;-41
2021/11/24 18:17:48;;;;;;;111.15;98.97;;;;;;;;;;5068595;28;20515;-43
2021/11/24 18:20:15;;;;;;;89.60;80.68;;;;;;;;;;5072205;28;20399;-40
2021/11/24 18:22:44;;;;;;;111.82;99.57;;;;;;;;;;5064919;28;20471;-44
2021/11/24 18:25:13;;;;;;;102.93;92.00;;;;;;;;;;5043062;28;20475;-40
2021/11/24 18:27:44;;;;;;;112.65;99.50;;;;;;;;;;5065166;28;20514;-42
2021/11/24 18:30:12;;;;;;;136.02;112.57;;;;;;;;;;5048194;28;20364;-42
2021/11/24 18:32:41;;;;;;;85.07;76.93;;;;;;;;;;5082060;28;20864;-42
2021/11/24 18:35:11;;;;;;;81.18;73.70;;;;;;;;;;5050200;28;20438;-43
2021/11/24 18:37:43;;;;;;;101.78;91.30;;;;;;;;;;5069448;28;20383;-41
2021/11/24 18:40:12;;;;;;;142.85;117.55;;;;;;;;;;5048948;28;20375;-39
2021/11/24 18:42:38;;;;;;;95.15;85.60;;;;;;;;;;5047229;28;20392;-41
2021/11/24 18:45:05;;;;;;;124.50;108.50;;;;;;;;;;5064871;28;20381;-39
2021/11/24 18:47:31;;;;;;;127.13;110.53;;;;;;;;;;5042342;28;20416;-41
2021/11/24 18:49:58;;;;;;;123.55;108.93;;;;;;;;;;5072979;28;20380;-41
2021/11/24 18:52:25;;;;;;;95.53;86.10;;;;;;;;;;5068620;28;20577;-41
2021/11/24 18:54:51;;;;;;;99.13;89.18;;;;;;;;;;5068161;28;20518;-40
2021/11/24 18:57:17;;;;;;;123.18;108.03;;;;;;;;;;5068129;28;20387;-41
2021/11/24 18:59:44;;;;;;;109.75;98.25;;;;;;;;;;5068722;28;20493;-41
2021/11/24 19:02:10;;;;;;;116.47;104.05;;;;;;;;;;5067239;28;20530;-40
2021/11/24 19:04:37;;;;;;;117.50;104.85;;;;;;;;;;5083155;28;20571;-39
2021/11/24 19:07:06;;;;;;;109.68;98.40;;;;;;;;;;5050085;28;20455;-40
2021/11/24 19:09:36;;;;;;;99.80;89.90;;;;;;;;;;5068678;28;20388;-39
2021/11/24 19:12:10;;;;;;;121.45;108.30;;;;;;;;;;5067986;28;20383;-39
2021/11/24 19:14:40;;;;;;;134.57;116.78;;;;;;;;;;5046866;28;20384;-41
2021/11/24 19:17:06;;;;;;;169.98;133.02;;;;;;;;;;5067345;28;20416;-40
2021/11/24 19:19:35;;;;;;;211.60;149.27;;;;;;;;;;5049227;28;20471;-41
2021/11/24 19:22:04;;;;;;;198.82;145.93;;;;;;;;;;5049548;28;20423;-40
2021/11/24 19:24:32;;;;;;;160.75;129.13;;;;;;;;;;5049675;28;20395;-40
2021/11/24 19:27:04;;;;;;;148.80;123.05;;;;;;;;;;5067877;28;20399;-40
2021/11/24 19:29:31;;;;;;;183.82;138.88;;;;;;;;;;5067477;28;20379;-41
2021/11/24 19:31:57;;;;;;;179.00;137.35;;;;;;;;;;5067847;28;20391;-38
2021/11/24 19:34:26;;;;;;;164.23;130.27;;;;;;;;;;5049437;28;20491;-39
2021/11/24 19:36:52;;;;;;;201.67;145.43;;;;;;;;;;5049829;28;20388;-42
2021/11/24 19:39:18;;;;;;;157.57;127.82;;;;;;;;;;5067180;28;20395;-40
2021/11/24 19:41:44;;;;;;;189.35;140.48;;;;;;;;;;5067282;28;20379;-40
2021/11/24 19:44:15;;;;;;;143.40;120.40;;;;;;;;;;5066359;28;20384;-40
2021/11/24 19:46:41;;;;;;;124.38;110.78;;;;;;;;;;5064113;28;20927;-42
2021/11/24 19:49:08;;;;;;;141.88;119.13;;;;;;;;;;5067709;28;20419;-41
2021/11/24 19:51:37;;;;;;;127.78;111.03;;;;;;;;;;5049763;28;20522;-39
2021/11/24 19:54:04;;;;;;;121.05;107.72;;;;;;;;;;5049518;28;20416;-40
2021/11/24 19:56:30;;;;;;;124.78;111.00;;;;;;;;;;5048887;28;20883;-40
2021/11/24 19:58:57;;;;;;;152.88;124.15;;;;;;;;;;5045123;28;20511;-39
2021/11/24 20:01:23;;;;;;;172.73;133.68;;;;;;;;;;5067668;28;20430;-39
2021/11/24 20:03:49;;;;;;;122.95;109.43;;;;;;;;;;5049289;28;20847;-39
2021/11/24 20:06:16;;;;;;;196.00;142.10;;;;;;;;;;5067975;28;20805;-39
2021/11/24 20:08:44;;;;;;;141.05;118.30;;;;;;;;;;5049201;28;20407;-39
2021/11/24 20:11:13;;;;;;;114.18;102.03;;;;;;;;;;5065576;28;20484;-40
2021/11/24 20:13:42;;;;;;;103.32;92.72;;;;;;;;;;5049122;28;20387;-39
2021/11/24 20:16:10;;;;;;;85.40;77.28;;;;;;;;;;5048962;28;20383;-40
2021/11/24 20:18:36;;;;;;;84.65;76.82;;;;;;;;;;5067291;28;20439;-40
2021/11/24 20:21:05;;;;;;;91.18;82.40;;;;;;;;;;5064657;28;20439;-40
2021/11/24 20:23:32;;;;;;;70.88;64.57;;;;;;;;;;5081445;28;20404;-41
2021/11/24 20:25:58;;;;;;;115.43;103.07;;;;;;;;;;5047636;28;20391;-49
2021/11/24 20:28:25;;;;;;;151.98;122.45;;;;;;;;;;5066999;28;20439;-47
2021/11/24 20:30:52;;;;;;;169.77;131.25;;;;;;;;;;5067572;28;20442;-47
2021/11/24 20:33:21;;;;;;;145.38;119.60;;;;;;;;;;5065627;28;20411;-49
2021/11/24 20:35:47;;;;;;;157.23;125.85;;;;;;;;;;5064829;28;20731;-46
2021/11/24 20:38:14;;;;;;;143.18;118.45;;;;;;;;;;5065780;28;20376;-51
2021/11/24 20:40:40;;;;;;;167.07;128.63;;;;;;;;;;5047522;28;20852;-49
2021/11/24 20:43:07;;;;;;;156.90;124.88;;;;;;;;;;5064482;28;20391;-47
2021/11/24 20:45:33;;;;;;;172.57;131.97;;;;;;;;;;5065888;28;20461;-48
2021/11/24 20:48:02;;;;;;;194.30;140.60;;;;;;;;;;5050232;28;21159;-47
2021/11/24 20:50:28;;;;;;;224.95;152.52;;;;;;;;;;5067130;28;20380;-47
2021/11/24 20:52:55;;;;;;;174.77;132.77;;;;;;;;;;5065755;28;20418;-46
2021/11/24 20:55:22;;;;;;;206.82;145.98;;;;;;;;;;5047179;28;20391;-48
2021/11/24 20:57:48;;;;;;;161.40;127.55;;;;;;;;;;5064744;28;20757;-47
2021/11/24 21:00:16;;;;;;;144.52;120.40;;;;;;;;;;5065108;28;20586;-47
2021/11/24 21:02:42;;;;;;;128.63;111.63;;;;;;;;;;5065505;28;20457;-46
2021/11/24 21:05:09;;;;;;;124.78;109.72;;;;;;;;;;5047552;28;20385;-47
2021/11/24 21:07:36;;;;;;;112.97;101.13;;;;;;;;;;5064984;28;20523;-47
2021/11/24 21:10:05;;;;;;;137.52;116.28;;;;;;;;;;5046407;28;20384;-47
2021/11/24 21:12:31;;;;;;;130.03;112.97;;;;;;;;;;5047049;28;20394;-48
2021/11/24 21:14:58;;;;;;;162.60;127.65;;;;;;;;;;5047256;28;20431;-49
2021/11/24 21:17:24;;;;;;;133.07;115.05;;;;;;;;;;5065934;28;20578;-47
2021/11/24 21:19:51;;;;;;;164.23;129.68;;;;;;;;;;5065389;28;20384;-47
2021/11/24 21:22:17;;;;;;;102.85;92.57;;;;;;;;;;5065854;28;20428;-46
2021/11/24 21:24:45;;;;;;;99.57;89.60;;;;;;;;;;5068752;28;20372;-47
2021/11/24 21:27:14;;;;;;;99.43;89.63;;;;;;;;;;5050742;28;20986;-47
2021/11/24 21:29:41;;;;;;;86.78;78.82;;;;;;;;;;5067314;28;20368;-46
2021/11/24 21:32:07;;;;;;;106.20;95.30;;;;;;;;;;5068449;28;20538;-48
2021/11/24 21:34:34;;;;;;;97.20;87.70;;;;;;;;;;5068817;28;20411;-49
2021/11/24 21:37:02;;;;;;;102.15;91.88;;;;;;;;;;5069617;28;20855;-47
2021/11/24 21:39:32;;;;;;;102.30;92.18;;;;;;;;;;5052302;28;20459;-50
2021/11/24 21:41:58;;;;;;;101.95;91.72;;;;;;;;;;5054158;28;20416;-48
2021/11/24 21:44:25;;;;;;;100.40;90.40;;;;;;;;;;5065761;28;20407;-46
2021/11/24 21:46:51;;;;;;;111.68;100.07;;;;;;;;;;5067459;28;20395;-48
2021/11/24 21:49:18;;;;;;;102.38;92.22;;;;;;;;;;5068495;28;20424;-48
2021/11/24 21:51:44;;;;;;;111.97;100.32;;;;;;;;;;5068132;28;20387;-49
2021/11/24 21:54:10;;;;;;;94.95;85.70;;;;;;;;;;5080450;28;20437;-45
